Time;durP1;ratioP1;P1;durP2;ratioP2;P2;SDS_P1;SDS_P2;PMS_P1;PMS_P2;Temp;Humidity;BMP_temperature;BMP_pressure;BME280_temperature;BME280_humidity;BME280_pressure;Samples;Min_cycle;Max_cycle;Signal;HPM_P1;HPM_P2
2022/02/20 00:00:55;;;;;;;8.07;7.37;;;;;;;;;;2058029;28;20202;-63
2022/02/20 00:01:55;;;;;;;7.63;7.03;;;;;;;;;;2058376;28;20535;-61
2022/02/20 00:02:56;;;;;;;8.23;7.50;;;;;;;;;;2058105;28;20190;-60
2022/02/20 00:03:56;;;;;;;6.83;6.23;;;;;;;;;;2058176;28;20174;-60
2022/02/20 00:04:56;;;;;;;7.27;6.43;;;;;;;;;;2057861;28;20178;-61
2022/02/20 00:05:56;;;;;;;7.47;6.47;;;;;;;;;;2058303;28;20639;-63
2022/02/20 00:06:57;;;;;;;8.23;7.43;;;;;;;;;;2058192;28;20714;-60
2022/02/20 00:07:57;;;;;;;7.43;6.83;;;;;;;;;;2057972;28;20260;-61
2022/02/20 00:08:58;;;;;;;7.30;6.70;;;;;;;;;;2058589;28;20178;-62
2022/02/20 00:09:58;;;;;;;5.77;5.20;;;;;;;;;;2058383;28;20178;-62
2022/02/20 00:10:58;;;;;;;4.90;4.40;;;;;;;;;;2058387;28;20210;-62
2022/02/20 00:11:58;;;;;;;6.77;5.43;;;;;;;;;;2058273;28;20170;-62
2022/02/20 00:12:59;;;;;;;7.60;6.83;;;;;;;;;;2059429;28;20225;-62
2022/02/20 00:13:59;;;;;;;7.27;6.50;;;;;;;;;;2057930;28;20186;-60
2022/02/20 00:15:01;;;;;;;8.93;6.40;;;;;;;;;;2058280;28;20635;-61
2022/02/20 00:16:02;;;;;;;7.27;5.57;;;;;;;;;;2057604;28;20183;-62
2022/02/20 00:17:02;;;;;;;6.40;5.90;;;;;;;;;;2058101;28;20635;-63
2022/02/20 00:18:03;;;;;;;6.27;5.67;;;;;;;;;;2057196;28;20266;-62
2022/02/20 00:19:03;;;;;;;7.03;6.43;;;;;;;;;;2055635;28;20218;-60
2022/02/20 00:20:04;;;;;;;6.87;5.43;;;;;;;;;;2053660;28;20170;-62
2022/02/20 00:21:04;;;;;;;7.10;6.60;;;;;;;;;;2057641;28;20606;-62
2022/02/20 00:22:04;;;;;;;8.50;6.47;;;;;;;;;;2055382;28;20619;-62
2022/02/20 00:23:05;;;;;;;9.20;6.07;;;;;;;;;;2053890;28;20190;-60
2022/02/20 00:24:05;;;;;;;7.37;6.37;;;;;;;;;;2053320;28;20253;-62
2022/02/20 00:25:06;;;;;;;9.30;6.10;;;;;;;;;;2057326;28;20194;-62
2022/02/20 00:26:06;;;;;;;6.77;6.23;;;;;;;;;;2057114;28;20261;-62
2022/02/20 00:27:06;;;;;;;6.83;5.67;;;;;;;;;;2057055;28;20167;-62
2022/02/20 00:28:07;;;;;;;7.20;5.93;;;;;;;;;;2056995;28;20608;-62
2022/02/20 00:29:07;;;;;;;6.37;5.77;;;;;;;;;;2057043;28;20702;-61
2022/02/20 00:30:09;;;;;;;7.73;6.83;;;;;;;;;;2056429;28;20217;-60
2022/02/20 00:31:09;;;;;;;8.13;6.20;;;;;;;;;;2057171;28;20656;-59
2022/02/20 00:32:10;;;;;;;5.77;5.37;;;;;;;;;;2057150;28;20522;-61
2022/02/20 00:33:11;;;;;;;5.70;5.27;;;;;;;;;;2056962;28;20554;-61
2022/02/20 00:34:12;;;;;;;7.47;6.77;;;;;;;;;;2054752;28;20568;-62
2022/02/20 00:35:13;;;;;;;9.00;6.70;;;;;;;;;;2057025;28;20253;-61
2022/02/20 00:36:13;;;;;;;8.57;7.70;;;;;;;;;;2056887;28;20654;-60
2022/02/20 00:37:13;;;;;;;7.93;7.13;;;;;;;;;;2057374;28;20210;-63
2022/02/20 00:38:13;;;;;;;6.50;5.87;;;;;;;;;;2056875;28;20171;-60
2022/02/20 00:39:14;;;;;;;7.47;6.40;;;;;;;;;;2057706;28;20194;-60
2022/02/20 00:40:15;;;;;;;7.03;5.83;;;;;;;;;;2057497;28;20770;-58
2022/02/20 00:41:15;;;;;;;6.07;5.13;;;;;;;;;;2056369;28;20233;-61
2022/02/20 00:42:15;;;;;;;7.60;7.00;;;;;;;;;;2056565;28;20179;-61
2022/02/20 00:43:17;;;;;;;5.83;5.13;;;;;;;;;;2053072;28;20182;-61
2022/02/20 00:44:17;;;;;;;7.23;6.63;;;;;;;;;;2055342;28;20186;-60
2022/02/20 00:45:19;;;;;;;10.57;7.30;;;;;;;;;;2053573;28;20715;-60
2022/02/20 00:46:19;;;;;;;10.47;6.63;;;;;;;;;;2057114;28;20249;-61
2022/02/20 00:47:20;;;;;;;8.53;7.07;;;;;;;;;;2055751;28;20671;-62
2022/02/20 00:48:21;;;;;;;7.97;7.13;;;;;;;;;;2049268;29;20595;-61
2022/02/20 00:49:21;;;;;;;6.90;5.80;;;;;;;;;;2056907;28;20185;-62
2022/02/20 00:50:21;;;;;;;7.70;7.00;;;;;;;;;;2055291;28;20182;-59
2022/02/20 00:51:22;;;;;;;8.27;7.40;;;;;;;;;;2056904;28;20697;-62
2022/02/20 00:52:22;;;;;;;8.00;6.57;;;;;;;;;;2056046;28;20348;-62
2022/02/20 00:53:23;;;;;;;11.80;7.73;;;;;;;;;;2056917;28;20225;-58
2022/02/20 00:54:23;;;;;;;8.00;6.80;;;;;;;;;;2056525;28;20186;-61
2022/02/20 00:55:25;;;;;;;7.33;6.23;;;;;;;;;;2056203;28;20280;-61
2022/02/20 00:56:25;;;;;;;10.30;7.70;;;;;;;;;;2048718;28;20182;-61
2022/02/20 00:57:25;;;;;;;11.17;6.97;;;;;;;;;;2056418;28;20242;-60
2022/02/20 00:58:26;;;;;;;8.50;7.07;;;;;;;;;;2055837;28;20221;-60
2022/02/20 00:59:26;;;;;;;11.13;7.30;;;;;;;;;;2050203;28;20285;-58
2022/02/20 01:00:27;;;;;;;10.57;7.03;;;;;;;;;;2056128;28;20583;-61
2022/02/20 01:01:27;;;;;;;9.17;7.87;;;;;;;;;;2045619;28;20202;-60
2022/02/20 01:02:28;;;;;;;11.20;7.33;;;;;;;;;;2056760;28;20182;-57
2022/02/20 01:03:28;;;;;;;8.27;6.50;;;;;;;;;;2051616;28;20183;-58
2022/02/20 01:04:29;;;;;;;11.83;7.50;;;;;;;;;;2055973;28;20235;-58
2022/02/20 01:05:29;;;;;;;11.67;7.10;;;;;;;;;;2055755;28;20698;-61
2022/02/20 01:06:29;;;;;;;10.10;7.70;;;;;;;;;;2048822;28;20223;-61
2022/02/20 01:07:30;;;;;;;7.33;6.57;;;;;;;;;;2056254;28;20340;-58
2022/02/20 01:08:30;;;;;;;8.40;7.10;;;;;;;;;;2056016;28;20279;-60
2022/02/20 01:09:30;;;;;;;10.37;7.10;;;;;;;;;;2056897;28;20178;-61
2022/02/20 01:10:33;;;;;;;9.63;7.00;;;;;;;;;;2051410;28;22386;-62
2022/02/20 01:11:33;;;;;;;8.87;6.60;;;;;;;;;;2056972;28;20170;-65
2022/02/20 01:12:33;;;;;;;9.80;6.90;;;;;;;;;;2054363;28;20213;-62
2022/02/20 01:13:34;;;;;;;11.23;7.73;;;;;;;;;;2049966;28;20189;-62
2022/02/20 01:14:36;;;;;;;8.77;7.70;;;;;;;;;;2052405;28;20186;-62
2022/02/20 01:15:36;;;;;;;8.47;7.03;;;;;;;;;;2049099;29;20187;-62
2022/02/20 01:16:37;;;;;;;11.57;7.60;;;;;;;;;;2040459;29;20187;-61
2022/02/20 01:17:37;;;;;;;8.57;7.10;;;;;;;;;;2037578;29;20624;-61
2022/02/20 01:18:38;;;;;;;9.77;7.17;;;;;;;;;;2040373;29;20207;-61
2022/02/20 01:19:38;;;;;;;11.17;7.83;;;;;;;;;;2052944;28;20731;-61
2022/02/20 01:20:39;;;;;;;11.67;8.13;;;;;;;;;;2056558;28;20513;-61
2022/02/20 01:21:40;;;;;;;8.33;7.23;;;;;;;;;;2057003;28;20185;-61
2022/02/20 01:22:41;;;;;;;13.03;7.63;;;;;;;;;;2055693;28;20213;-59
2022/02/20 01:23:41;;;;;;;9.77;7.50;;;;;;;;;;2056574;28;20194;-60
2022/02/20 01:24:41;;;;;;;13.93;8.67;;;;;;;;;;2056183;28;20293;-60
2022/02/20 01:25:41;;;;;;;6.73;6.03;;;;;;;;;;2057727;28;20169;-61
2022/02/20 01:26:42;;;;;;;7.67;6.33;;;;;;;;;;2054845;28;20166;-61
2022/02/20 01:27:43;;;;;;;13.97;7.63;;;;;;;;;;2054504;28;20723;-57
2022/02/20 01:28:43;;;;;;;17.47;8.13;;;;;;;;;;2056366;28;20182;-62
2022/02/20 01:29:44;;;;;;;13.57;6.50;;;;;;;;;;2055849;28;20307;-58
2022/02/20 01:30:44;;;;;;;11.47;7.03;;;;;;;;;;2057193;28;20187;-61
2022/02/20 01:31:44;;;;;;;9.10;6.80;;;;;;;;;;2056266;28;20185;-61
2022/02/20 01:32:44;;;;;;;10.80;6.70;;;;;;;;;;2040869;29;20608;-59
2022/02/20 01:33:46;;;;;;;9.00;7.13;;;;;;;;;;2048261;29;20652;-61
2022/02/20 01:34:47;;;;;;;9.03;6.80;;;;;;;;;;2050828;28;20195;-61
2022/02/20 01:35:47;;;;;;;9.53;7.17;;;;;;;;;;2056475;28;20178;-61
2022/02/20 01:36:48;;;;;;;12.73;7.33;;;;;;;;;;2056997;28;20645;-61
2022/02/20 01:37:52;;;;;;;15.00;7.77;;;;;;;;;;2055977;28;20173;-62
2022/02/20 01:38:53;;;;;;;12.60;6.80;;;;;;;;;;2048817;28;20191;-59
2022/02/20 01:39:55;;;;;;;9.07;6.70;;;;;;;;;;2048400;28;20175;-61
2022/02/20 01:40:57;;;;;;;17.87;7.70;;;;;;;;;;2048999;28;20187;-61
2022/02/20 01:41:58;;;;;;;12.83;7.90;;;;;;;;;;2046170;29;20175;-60
2022/02/20 01:42:58;;;;;;;10.90;5.93;;;;;;;;;;2047843;29;20860;-62
2022/02/20 01:43:58;;;;;;;12.37;7.10;;;;;;;;;;2048293;29;20187;-59
2022/02/20 01:45:00;;;;;;;11.93;7.10;;;;;;;;;;2050896;28;20178;-61
2022/02/20 01:46:02;;;;;;;10.77;7.33;;;;;;;;;;2052158;28;20180;-61
2022/02/20 01:47:09;;;;;;;8.40;6.53;;;;;;;;;;2051858;28;20185;-58
2022/02/20 01:48:12;;;;;;;8.33;6.00;;;;;;;;;;2056645;28;20223;-62
2022/02/20 01:49:17;;;;;;;14.63;7.10;;;;;;;;;;2048574;28;20206;-61
2022/02/20 01:50:20;;;;;;;12.50;6.83;;;;;;;;;;2056166;28;20171;-62
2022/02/20 01:51:23;;;;;;;12.77;6.03;;;;;;;;;;2053910;28;20230;-61
2022/02/20 01:52:24;;;;;;;9.63;6.83;;;;;;;;;;2044099;28;20208;-60
2022/02/20 01:53:30;;;;;;;12.20;6.60;;;;;;;;;;2047471;28;20697;-62
2022/02/20 01:54:30;;;;;;;12.07;6.90;;;;;;;;;;2047239;29;20175;-61
2022/02/20 01:55:31;;;;;;;12.73;7.37;;;;;;;;;;2047905;29;20187;-60
2022/02/20 01:57:03;;;;;;;10.47;7.00;;;;;;;;;;2051484;28;20186;-59
2022/02/20 01:58:23;;;;;;;14.73;6.47;;;;;;;;;;2054924;28;20201;-57
2022/02/20 01:59:42;;;;;;;13.93;6.13;;;;;;;;;;2053576;28;20630;-60
2022/02/20 02:01:18;;;;;;;10.80;6.87;;;;;;;;;;2054960;28;20699;-58
2022/02/20 02:02:39;;;;;;;9.83;6.43;;;;;;;;;;2049077;28;20605;-60
2022/02/20 02:03:56;;;;;;;12.73;6.37;;;;;;;;;;2052788;28;20181;-62
2022/02/20 02:05:11;;;;;;;16.57;6.90;;;;;;;;;;2056610;28;20185;-61
2022/02/20 02:06:16;;;;;;;10.63;6.00;;;;;;;;;;2056243;28;20174;-61
2022/02/20 02:07:17;;;;;;;11.83;7.30;;;;;;;;;;2055814;28;20717;-60
2022/02/20 02:08:38;;;;;;;10.87;6.73;;;;;;;;;;2048688;28;20606;-61
2022/02/20 02:10:10;;;;;;;9.87;6.17;;;;;;;;;;2043168;29;20226;-62
2022/02/20 02:11:30;;;;;;;6.33;5.43;;;;;;;;;;2054898;28;20185;-60
2022/02/20 02:12:37;;;;;;;12.47;6.50;;;;;;;;;;2048330;28;20175;-60
2022/02/20 02:13:51;;;;;;;11.33;6.93;;;;;;;;;;2047747;29;20294;-60
2022/02/20 02:15:09;;;;;;;10.17;6.63;;;;;;;;;;2044042;28;20189;-61
2022/02/20 02:16:30;;;;;;;15.40;6.60;;;;;;;;;;2039597;29;20238;-61
2022/02/20 02:17:49;;;;;;;12.67;6.30;;;;;;;;;;2055119;28;20198;-61
2022/02/20 02:19:02;;;;;;;10.70;5.37;;;;;;;;;;2049289;28;20186;-62
2022/02/20 02:20:21;;;;;;;11.10;6.07;;;;;;;;;;2055014;28;20241;-59
2022/02/20 02:21:45;;;;;;;8.83;6.13;;;;;;;;;;2055542;28;20233;-61
2022/02/20 02:23:05;;;;;;;12.40;5.67;;;;;;;;;;2056216;28;20317;-61
2022/02/20 02:24:22;;;;;;;7.67;5.27;;;;;;;;;;2052001;28;20198;-61
2022/02/20 02:25:29;;;;;;;7.03;5.73;;;;;;;;;;2048567;28;20179;-63
2022/02/20 02:26:47;;;;;;;14.83;5.90;;;;;;;;;;2048805;28;20155;-62
2022/02/20 02:28:05;;;;;;;8.47;5.67;;;;;;;;;;2052351;28;20576;-62
2022/02/20 02:29:19;;;;;;;5.97;4.30;;;;;;;;;;2047870;29;20828;-59
2022/02/20 02:30:19;;;;;;;7.83;4.70;;;;;;;;;;2045895;29;20179;-61
2022/02/20 02:31:20;;;;;;;7.13;4.83;;;;;;;;;;2055759;28;20292;-61
2022/02/20 02:32:21;;;;;;;10.60;4.77;;;;;;;;;;2050322;28;20182;-62
2022/02/20 02:33:26;;;;;;;9.93;6.10;;;;;;;;;;2055598;28;20182;-62
2022/02/20 02:34:26;;;;;;;10.50;5.70;;;;;;;;;;2048384;28;20233;-60
2022/02/20 02:35:28;;;;;;;7.33;5.37;;;;;;;;;;2056308;28;20209;-61
2022/02/20 02:36:29;;;;;;;7.03;5.20;;;;;;;;;;2055113;28;20186;-61
2022/02/20 02:37:29;;;;;;;9.23;5.33;;;;;;;;;;2047912;29;20486;-61
2022/02/20 02:38:29;;;;;;;12.00;5.67;;;;;;;;;;2047806;29;20177;-61
2022/02/20 02:39:32;;;;;;;8.33;5.30;;;;;;;;;;2056721;28;20646;-60
2022/02/20 02:40:33;;;;;;;7.77;5.20;;;;;;;;;;2056163;28;20170;-60
2022/02/20 02:41:33;;;;;;;8.33;4.80;;;;;;;;;;2056527;28;20581;-61
2022/02/20 02:42:33;;;;;;;12.23;5.27;;;;;;;;;;2056352;28;20572;-61
2022/02/20 02:43:35;;;;;;;10.73;6.03;;;;;;;;;;2048684;28;20197;-63
2022/02/20 02:44:35;;;;;;;9.33;6.03;;;;;;;;;;2048118;28;20175;-61
2022/02/20 02:45:36;;;;;;;7.30;4.90;;;;;;;;;;2054971;28;20177;-62
2022/02/20 02:46:39;;;;;;;5.57;4.43;;;;;;;;;;2055514;28;20191;-61
2022/02/20 02:47:47;;;;;;;6.33;5.37;;;;;;;;;;2047677;28;20274;-61
2022/02/20 02:48:50;;;;;;;10.27;4.83;;;;;;;;;;2047432;28;20195;-60
2022/02/20 02:49:53;;;;;;;9.60;5.57;;;;;;;;;;2048837;28;20174;-62
2022/02/20 02:50:53;;;;;;;6.00;5.33;;;;;;;;;;2053196;28;20194;-59
2022/02/20 02:51:54;;;;;;;9.73;5.03;;;;;;;;;;2044307;29;20175;-59
2022/02/20 02:52:54;;;;;;;11.20;5.27;;;;;;;;;;2044776;29;20968;-58
2022/02/20 02:53:55;;;;;;;10.97;5.10;;;;;;;;;;2049719;28;20493;-56
2022/02/20 02:54:56;;;;;;;11.47;5.60;;;;;;;;;;2056099;28;20185;-62
2022/02/20 02:55:56;;;;;;;11.83;5.30;;;;;;;;;;2055526;28;20594;-62
2022/02/20 02:57:02;;;;;;;7.67;5.70;;;;;;;;;;2040371;29;20251;-61
2022/02/20 02:58:03;;;;;;;11.17;5.53;;;;;;;;;;2040593;28;20431;-62
2022/02/20 02:59:05;;;;;;;7.47;5.20;;;;;;;;;;2047520;28;20266;-59
2022/02/20 03:00:06;;;;;;;7.63;5.03;;;;;;;;;;2045710;29;20238;-59
2022/02/20 03:01:06;;;;;;;8.97;5.67;;;;;;;;;;2047218;28;20194;-61
2022/02/20 03:02:08;;;;;;;9.73;5.00;;;;;;;;;;2047516;29;20595;-62
2022/02/20 03:03:08;;;;;;;8.30;5.77;;;;;;;;;;2054134;28;20253;-60
2022/02/20 03:04:09;;;;;;;7.10;5.60;;;;;;;;;;2054994;28;20269;-61
2022/02/20 03:05:09;;;;;;;12.77;5.83;;;;;;;;;;2048100;29;20344;-60
2022/02/20 03:06:12;;;;;;;8.83;5.47;;;;;;;;;;2047072;29;20171;-61
2022/02/20 03:07:14;;;;;;;6.83;5.27;;;;;;;;;;2044684;28;20167;-58
2022/02/20 03:08:14;;;;;;;10.30;5.57;;;;;;;;;;2055648;28;20209;-61
2022/02/20 03:09:15;;;;;;;8.23;4.83;;;;;;;;;;2055389;28;20174;-59
2022/02/20 03:10:15;;;;;;;7.60;5.70;;;;;;;;;;2055343;28;20197;-59
2022/02/20 03:11:16;;;;;;;6.90;5.60;;;;;;;;;;2047407;28;20302;-61
2022/02/20 03:12:16;;;;;;;8.73;5.27;;;;;;;;;;2055344;28;20392;-59
2022/02/20 03:13:19;;;;;;;9.23;5.77;;;;;;;;;;2055586;28;20265;-60
2022/02/20 03:14:21;;;;;;;8.43;6.53;;;;;;;;;;2047188;28;20178;-61
2022/02/20 03:15:22;;;;;;;10.20;5.80;;;;;;;;;;2047277;29;20213;-61
2022/02/20 03:16:22;;;;;;;10.23;6.10;;;;;;;;;;2055454;28;20270;-61
2022/02/20 03:17:24;;;;;;;9.70;6.30;;;;;;;;;;2055695;28;20659;-61
2022/02/20 03:18:29;;;;;;;9.13;6.07;;;;;;;;;;2047686;29;20269;-62
2022/02/20 03:19:29;;;;;;;8.57;6.23;;;;;;;;;;2049462;28;20234;-60
2022/02/20 03:20:29;;;;;;;6.40;5.37;;;;;;;;;;2054399;28;20241;-59
2022/02/20 03:21:30;;;;;;;12.43;6.77;;;;;;;;;;2055681;28;20178;-62
2022/02/20 03:22:30;;;;;;;11.87;6.23;;;;;;;;;;2055484;28;20266;-62
2022/02/20 03:23:30;;;;;;;9.47;5.63;;;;;;;;;;2047529;29;20179;-62
2022/02/20 03:24:34;;;;;;;8.90;6.27;;;;;;;;;;2044453;28;20194;-61
2022/02/20 03:25:34;;;;;;;9.40;6.30;;;;;;;;;;2047316;29;20349;-60
2022/02/20 03:26:41;;;;;;;8.63;5.83;;;;;;;;;;2048523;28;20198;-61
2022/02/20 03:27:41;;;;;;;9.03;6.53;;;;;;;;;;2048167;29;20194;-62
2022/02/20 03:28:46;;;;;;;12.83;5.90;;;;;;;;;;2047292;28;20171;-61
2022/02/20 03:29:48;;;;;;;11.77;7.07;;;;;;;;;;2047955;28;20175;-62
2022/02/20 03:30:49;;;;;;;14.17;7.13;;;;;;;;;;2042464;28;20262;-62
2022/02/20 03:31:50;;;;;;;8.40;6.57;;;;;;;;;;2051729;28;20170;-64
2022/02/20 03:32:51;;;;;;;16.00;6.90;;;;;;;;;;2039687;29;20234;-60
2022/02/20 03:33:56;;;;;;;9.23;6.60;;;;;;;;;;2042557;29;20261;-62
2022/02/20 03:35:00;;;;;;;13.37;6.73;;;;;;;;;;2050166;28;20194;-61
2022/02/20 03:36:00;;;;;;;11.03;6.73;;;;;;;;;;2055178;28;20650;-62
2022/02/20 03:37:00;;;;;;;6.17;5.40;;;;;;;;;;2048266;28;20175;-60
2022/02/20 03:38:10;;;;;;;9.50;7.00;;;;;;;;;;2044170;29;20409;-61
2022/02/20 03:39:12;;;;;;;11.90;6.63;;;;;;;;;;2052866;28;20296;-61
2022/02/20 03:40:13;;;;;;;11.03;6.87;;;;;;;;;;2055874;28;20171;-61
2022/02/20 03:41:14;;;;;;;16.13;6.53;;;;;;;;;;2047747;28;20214;-57
2022/02/20 03:42:16;;;;;;;10.07;6.37;;;;;;;;;;2043279;28;20219;-56
2022/02/20 03:43:34;;;;;;;9.07;6.10;;;;;;;;;;2058307;28;20208;-58
2022/02/20 03:44:36;;;;;;;13.83;7.10;;;;;;;;;;2044152;29;20179;-60
2022/02/20 03:45:49;;;;;;;9.70;6.83;;;;;;;;;;2051203;28;20221;-61
2022/02/20 03:46:50;;;;;;;8.00;6.23;;;;;;;;;;2048983;29;20710;-60
2022/02/20 03:47:51;;;;;;;11.90;7.20;;;;;;;;;;2044679;29;20271;-60
2022/02/20 03:48:52;;;;;;;10.63;6.70;;;;;;;;;;2049408;28;20190;-61
2022/02/20 03:50:05;;;;;;;11.63;6.37;;;;;;;;;;2052059;28;20175;-60
2022/02/20 03:51:18;;;;;;;12.13;7.07;;;;;;;;;;2051834;28;20789;-61
2022/02/20 03:52:19;;;;;;;8.40;7.07;;;;;;;;;;2043422;29;20180;-61
2022/02/20 03:53:22;;;;;;;9.23;6.33;;;;;;;;;;2051948;29;20202;-62
2022/02/20 03:54:22;;;;;;;12.80;7.40;;;;;;;;;;2049436;29;20167;-58
2022/02/20 03:55:23;;;;;;;8.97;6.53;;;;;;;;;;2047465;29;20175;-61
2022/02/20 03:56:25;;;;;;;11.73;7.40;;;;;;;;;;2049927;28;20170;-61
2022/02/20 03:57:32;;;;;;;10.53;6.70;;;;;;;;;;2049999;29;20266;-61
2022/02/20 03:58:58;;;;;;;7.40;6.70;;;;;;;;;;2034363;28;20200;-62
2022/02/20 04:00:00;;;;;;;8.10;6.33;;;;;;;;;;2048613;29;20178;-63
2022/02/20 04:01:05;;;;;;;9.60;6.43;;;;;;;;;;2047806;28;20195;-63
2022/02/20 04:02:11;;;;;;;8.93;7.00;;;;;;;;;;2039047;29;20227;-63
2022/02/20 04:03:12;;;;;;;10.63;6.77;;;;;;;;;;2046032;28;20230;-62
2022/02/20 04:04:18;;;;;;;8.97;7.07;;;;;;;;;;2047987;29;20175;-61
2022/02/20 04:05:19;;;;;;;7.00;6.00;;;;;;;;;;2040308;29;20720;-59
2022/02/20 04:06:20;;;;;;;10.43;6.77;;;;;;;;;;2048681;28;20672;-62
2022/02/20 04:07:25;;;;;;;9.93;6.70;;;;;;;;;;2057163;28;20183;-62
2022/02/20 04:08:25;;;;;;;9.60;6.20;;;;;;;;;;2048981;29;20179;-61
2022/02/20 04:09:33;;;;;;;8.13;6.50;;;;;;;;;;2056818;28;20182;-61
2022/02/20 04:10:37;;;;;;;9.30;6.07;;;;;;;;;;2055543;28;20183;-59
2022/02/20 04:11:41;;;;;;;14.03;6.23;;;;;;;;;;2048785;28;20181;-61
2022/02/20 04:12:56;;;;;;;5.83;5.30;;;;;;;;;;2048299;29;20170;-60
2022/02/20 04:13:59;;;;;;;7.67;5.87;;;;;;;;;;2054325;28;20183;-59
2022/02/20 04:15:08;;;;;;;9.37;6.60;;;;;;;;;;2038548;29;20223;-56
2022/02/20 04:16:09;;;;;;;11.00;5.97;;;;;;;;;;2044770;28;20548;-62
2022/02/20 04:17:12;;;;;;;6.77;6.00;;;;;;;;;;2050770;28;20531;-60
2022/02/20 04:18:16;;;;;;;8.53;5.57;;;;;;;;;;2044000;28;20182;-59
2022/02/20 04:19:23;;;;;;;7.87;6.20;;;;;;;;;;2042950;29;20203;-60
2022/02/20 04:20:24;;;;;;;7.10;5.93;;;;;;;;;;2040164;29;20219;-59
2022/02/20 04:21:26;;;;;;;8.03;6.13;;;;;;;;;;2046006;28;20238;-58
2022/02/20 04:22:38;;;;;;;7.07;6.37;;;;;;;;;;2041303;29;20192;-63
2022/02/20 04:23:38;;;;;;;9.70;5.93;;;;;;;;;;2045946;28;20263;-58
2022/02/20 04:24:40;;;;;;;8.30;6.43;;;;;;;;;;2047061;29;20263;-60
2022/02/20 04:25:44;;;;;;;9.13;6.30;;;;;;;;;;2046527;29;20174;-61
2022/02/20 04:26:45;;;;;;;12.93;6.17;;;;;;;;;;2040827;29;20688;-58
2022/02/20 04:27:53;;;;;;;6.73;5.80;;;;;;;;;;2050401;28;20171;-58
2022/02/20 04:28:55;;;;;;;5.93;5.33;;;;;;;;;;2047921;28;20179;-61
2022/02/20 04:29:57;;;;;;;9.77;6.40;;;;;;;;;;2047423;28;20178;-59
2022/02/20 04:32:00;;;;;;;7.97;6.10;;;;;;;;;;2082459;23;20240;-55
2022/02/20 04:33:00;;;;;;;6.33;5.57;;;;;;;;;;2061230;28;20237;-56
2022/02/20 04:34:01;;;;;;;10.03;5.53;;;;;;;;;;2058602;28;20169;-55
2022/02/20 04:35:03;;;;;;;6.97;5.40;;;;;;;;;;2061026;28;20190;-56
2022/02/20 04:36:03;;;;;;;6.17;5.63;;;;;;;;;;2055873;28;20244;-56
2022/02/20 04:37:04;;;;;;;9.03;6.33;;;;;;;;;;2045322;28;20179;-55
2022/02/20 04:38:06;;;;;;;7.13;5.83;;;;;;;;;;2049151;28;20267;-54
2022/02/20 04:39:09;;;;;;;5.73;5.23;;;;;;;;;;2054838;28;20228;-57
2022/02/20 04:40:10;;;;;;;5.90;5.23;;;;;;;;;;2051727;28;20174;-56
2022/02/20 04:41:21;;;;;;;6.57;5.00;;;;;;;;;;2053044;28;20211;-56
2022/02/20 04:42:21;;;;;;;7.00;5.07;;;;;;;;;;2056698;28;20167;-55
2022/02/20 04:43:31;;;;;;;6.67;6.00;;;;;;;;;;2035181;29;20179;-56
2022/02/20 04:44:37;;;;;;;6.90;5.80;;;;;;;;;;2049181;28;20197;-56
2022/02/20 04:45:39;;;;;;;7.27;6.03;;;;;;;;;;2053992;28;20168;-56
2022/02/20 04:46:46;;;;;;;5.87;5.37;;;;;;;;;;2049381;28;20238;-56
2022/02/20 04:47:46;;;;;;;6.93;5.67;;;;;;;;;;2045742;28;20636;-55
2022/02/20 04:48:51;;;;;;;5.83;5.20;;;;;;;;;;2053890;28;20270;-57
2022/02/20 04:50:11;;;;;;;7.93;5.70;;;;;;;;;;2052426;28;20190;-57
2022/02/20 04:51:18;;;;;;;5.80;5.30;;;;;;;;;;2051167;28;20203;-56
2022/02/20 04:52:19;;;;;;;6.20;5.60;;;;;;;;;;2049779;28;20310;-56
2022/02/20 04:53:37;;;;;;;5.87;5.37;;;;;;;;;;2044514;28;20182;-54
2022/02/20 04:54:38;;;;;;;6.90;6.23;;;;;;;;;;2061239;28;20170;-57
2022/02/20 04:55:38;;;;;;;6.63;5.90;;;;;;;;;;2053176;28;20606;-55
2022/02/20 04:56:42;;;;;;;6.30;5.70;;;;;;;;;;2057145;28;20667;-55
2022/02/20 04:57:42;;;;;;;6.30;5.70;;;;;;;;;;2054938;28;20182;-56
2022/02/20 04:58:54;;;;;;;7.50;6.63;;;;;;;;;;2055172;28;20266;-57
2022/02/20 05:00:08;;;;;;;6.50;5.87;;;;;;;;;;2054518;28;20590;-57
2022/02/20 05:01:38;;;;;;;7.17;6.53;;;;;;;;;;2038418;28;20294;-57
2022/02/20 05:02:53;;;;;;;6.33;5.73;;;;;;;;;;2055743;28;20181;-57
2022/02/20 05:03:54;;;;;;;7.60;6.37;;;;;;;;;;2044558;28;20184;-55
2022/02/20 05:05:04;;;;;;;8.27;6.40;;;;;;;;;;2049205;28;20182;-56
2022/02/20 05:06:04;;;;;;;6.30;5.70;;;;;;;;;;2047966;28;20167;-57
2022/02/20 05:07:15;;;;;;;7.50;6.60;;;;;;;;;;2056093;28;20300;-57
2022/02/20 05:08:15;;;;;;;6.50;5.83;;;;;;;;;;2051738;28;20660;-57
2022/02/20 05:09:16;;;;;;;6.33;5.73;;;;;;;;;;2043177;29;20271;-57
2022/02/20 05:10:25;;;;;;;6.47;5.87;;;;;;;;;;2057730;28;20174;-57
2022/02/20 05:11:27;;;;;;;7.13;6.43;;;;;;;;;;2058210;28;20186;-55
2022/02/20 05:12:32;;;;;;;6.40;5.90;;;;;;;;;;2051030;28;20190;-56
2022/02/20 05:13:32;;;;;;;7.50;6.57;;;;;;;;;;2048818;29;20298;-56
2022/02/20 05:14:32;;;;;;;7.00;6.40;;;;;;;;;;2041120;29;20199;-56
2022/02/20 05:15:43;;;;;;;6.67;6.07;;;;;;;;;;2046249;28;20190;-57
2022/02/20 05:16:47;;;;;;;6.50;6.00;;;;;;;;;;2042241;28;20180;-57
2022/02/20 05:17:53;;;;;;;8.73;5.40;;;;;;;;;;2043420;29;20184;-55
2022/02/20 05:18:54;;;;;;;6.40;5.80;;;;;;;;;;2045181;29;20284;-57
2022/02/20 05:19:55;;;;;;;5.87;5.30;;;;;;;;;;2055139;28;20253;-55
2022/02/20 05:20:56;;;;;;;5.97;5.47;;;;;;;;;;2055394;28;20174;-58
2022/02/20 05:21:57;;;;;;;7.20;6.50;;;;;;;;;;2044541;29;20286;-56
2022/02/20 05:23:01;;;;;;;6.00;5.50;;;;;;;;;;2057708;28;20725;-55
2022/02/20 05:24:02;;;;;;;7.00;6.30;;;;;;;;;;2058442;28;20178;-54
2022/02/20 05:25:02;;;;;;;6.07;5.57;;;;;;;;;;2045519;28;20199;-54
2022/02/20 05:26:03;;;;;;;5.73;5.30;;;;;;;;;;2045696;28;20167;-53
2022/02/20 05:27:05;;;;;;;5.87;5.37;;;;;;;;;;2045303;28;20204;-53
2022/02/20 05:28:11;;;;;;;5.23;4.83;;;;;;;;;;2051623;28;20162;-55
2022/02/20 05:29:13;;;;;;;6.20;5.63;;;;;;;;;;2051789;28;20185;-55
2022/02/20 05:30:16;;;;;;;5.07;4.57;;;;;;;;;;2043708;28;20667;-56
2022/02/20 05:31:18;;;;;;;4.80;4.40;;;;;;;;;;2048613;28;20179;-55
2022/02/20 05:32:26;;;;;;;5.67;5.17;;;;;;;;;;2043919;28;20175;-57
2022/02/20 05:33:32;;;;;;;4.67;4.33;;;;;;;;;;2049698;28;20171;-55
2022/02/20 05:34:33;;;;;;;5.67;5.10;;;;;;;;;;2046372;28;20556;-55
2022/02/20 05:35:33;;;;;;;4.73;4.43;;;;;;;;;;2051935;28;20183;-55
2022/02/20 05:36:34;;;;;;;5.17;4.67;;;;;;;;;;2057789;28;20367;-55
2022/02/20 05:37:42;;;;;;;5.40;4.90;;;;;;;;;;2050061;28;20171;-57
2022/02/20 05:38:43;;;;;;;5.47;4.97;;;;;;;;;;2046743;28;20198;-57
2022/02/20 05:39:43;;;;;;;5.67;5.20;;;;;;;;;;2048000;29;20203;-57
2022/02/20 05:40:44;;;;;;;5.40;5.00;;;;;;;;;;2035814;29;20265;-56
2022/02/20 05:41:48;;;;;;;4.70;4.40;;;;;;;;;;2046318;28;20290;-56
2022/02/20 05:42:48;;;;;;;5.07;4.57;;;;;;;;;;2048895;28;20399;-56
2022/02/20 05:43:48;;;;;;;5.07;4.30;;;;;;;;;;2054612;28;20201;-53
2022/02/20 05:44:51;;;;;;;4.90;4.40;;;;;;;;;;2050536;28;20211;-56
2022/02/20 05:45:53;;;;;;;4.20;3.90;;;;;;;;;;2056176;28;20542;-54
2022/02/20 05:46:58;;;;;;;5.43;4.20;;;;;;;;;;2045734;28;20179;-53
2022/02/20 05:48:00;;;;;;;3.93;3.60;;;;;;;;;;2044565;28;20557;-53
2022/02/20 05:49:04;;;;;;;4.37;3.97;;;;;;;;;;2045075;29;20694;-57
2022/02/20 05:50:17;;;;;;;4.23;3.93;;;;;;;;;;2046468;28;20510;-52
2022/02/20 05:51:20;;;;;;;4.10;3.80;;;;;;;;;;2055566;28;20194;-52
2022/02/20 05:52:37;;;;;;;4.50;4.20;;;;;;;;;;2041665;28;20193;-53
2022/02/20 05:53:41;;;;;;;4.10;3.80;;;;;;;;;;2049091;28;20177;-58
2022/02/20 05:54:41;;;;;;;4.37;3.97;;;;;;;;;;2048318;28;20714;-53
2022/02/20 05:55:42;;;;;;;4.00;3.63;;;;;;;;;;2055243;28;20178;-56
2022/02/20 05:56:42;;;;;;;4.73;4.33;;;;;;;;;;2041803;29;20239;-55
2022/02/20 05:57:47;;;;;;;4.47;4.17;;;;;;;;;;2056695;28;20170;-56
2022/02/20 05:58:48;;;;;;;3.53;3.33;;;;;;;;;;2043818;28;20259;-55
2022/02/20 05:59:48;;;;;;;4.23;3.87;;;;;;;;;;2046655;29;20564;-53
2022/02/20 06:00:49;;;;;;;4.70;4.13;;;;;;;;;;2052266;28;20178;-53
2022/02/20 06:01:49;;;;;;;4.43;4.00;;;;;;;;;;2054553;28;20814;-53
2022/02/20 06:02:51;;;;;;;6.30;4.27;;;;;;;;;;2042125;28;20183;-54
2022/02/20 06:03:51;;;;;;;4.30;4.00;;;;;;;;;;2037821;29;20169;-53
2022/02/20 06:05:15;;;;;;;5.90;4.30;;;;;;;;;;2040892;28;20175;-56
2022/02/20 06:06:35;;;;;;;4.60;4.30;;;;;;;;;;2048732;28;20159;-55
2022/02/20 06:07:54;;;;;;;4.50;4.10;;;;;;;;;;2052491;28;20179;-56
2022/02/20 06:09:07;;;;;;;6.23;4.33;;;;;;;;;;2051264;28;20679;-58
2022/02/20 06:10:13;;;;;;;4.77;4.20;;;;;;;;;;2051047;28;20207;-56
2022/02/20 06:11:31;;;;;;;5.90;4.17;;;;;;;;;;2041265;28;20585;-56
2022/02/20 06:12:53;;;;;;;4.17;3.60;;;;;;;;;;2045246;28;20229;-57
2022/02/20 06:14:14;;;;;;;4.17;3.83;;;;;;;;;;2044404;28;20256;-56
2022/02/20 06:15:36;;;;;;;4.77;4.00;;;;;;;;;;2052329;28;20713;-54
2022/02/20 06:16:56;;;;;;;5.00;4.23;;;;;;;;;;2031267;29;20200;-56
2022/02/20 06:18:19;;;;;;;5.00;4.37;;;;;;;;;;2044409;28;20597;-56
2022/02/20 06:19:25;;;;;;;5.47;4.60;;;;;;;;;;2045942;28;20302;-53
2022/02/20 06:20:53;;;;;;;5.07;4.47;;;;;;;;;;2053291;28;20175;-57
2022/02/20 06:21:53;;;;;;;4.53;4.23;;;;;;;;;;2054232;28;20322;-54
2022/02/20 06:23:12;;;;;;;8.63;4.63;;;;;;;;;;2056671;28;20261;-56
2022/02/20 06:24:22;;;;;;;5.10;4.67;;;;;;;;;;2055004;28;20245;-57